createdAt,value
2022-12-29T00:01:02.902Z,45.80
2022-12-29T00:03:30.409Z,57.05
2022-12-29T00:05:58.799Z,39.83
2022-12-29T00:08:41.015Z,31.13
2022-12-29T00:11:10.737Z,54.33
2022-12-29T00:13:57.069Z,45.15
2022-12-29T00:16:24.727Z,43.20
2022-12-29T00:18:51.978Z,52.90
2022-12-29T00:21:40.274Z,29.08
2022-12-29T00:24:26.305Z,46.78
2022-12-29T00:27:18.125Z,51.50
2022-12-29T00:30:04.026Z,38.47
2022-12-29T00:32:49.890Z,43.90
2022-12-29T00:35:29.874Z,35.05
2022-12-29T00:38:18.771Z,39.03
2022-12-29T00:41:04.511Z,39.15
2022-12-29T00:43:50.249Z,40.90
2022-12-29T00:46:21.764Z,33.50
2022-12-29T00:49:07.334Z,40.75
2022-12-29T00:51:34.699Z,47.67
2022-12-29T00:54:01.820Z,44.22
2022-12-29T00:56:29.064Z,30.60
2022-12-29T00:58:56.205Z,36.65
2022-12-29T01:01:23.477Z,35.67
2022-12-29T01:03:50.834Z,36.72
2022-12-29T01:06:17.995Z,30.08
2022-12-29T01:08:45.499Z,36.65
2022-12-29T01:11:13.948Z,38.35
2022-12-29T01:13:43.608Z,34.00
2022-12-29T01:16:10.959Z,36.65
2022-12-29T01:18:38.358Z,33.33
2022-12-29T01:21:07.469Z,44.90
2022-12-29T01:23:34.620Z,30.23
2022-12-29T01:26:15.912Z,26.55
2022-12-29T01:28:43.601Z,31.58
2022-12-29T01:31:12.275Z,32.75
2022-12-29T01:33:39.969Z,27.25
2022-12-29T01:36:10.325Z,19.88
2022-12-29T01:38:38.891Z,28.45
2022-12-29T01:41:07.344Z,28.55
2022-12-29T01:43:54.548Z,38.45
2022-12-29T01:46:40.150Z,25.75
2022-12-29T01:49:14.812Z,34.47
2022-12-29T01:51:49.353Z,37.47
2022-12-29T01:54:42.735Z,40.42
2022-12-29T01:57:18.932Z,45.70
2022-12-29T01:59:54.224Z,28.13
2022-12-29T02:02:21.645Z,24.83
2022-12-29T02:04:49.306Z,34.75
2022-12-29T02:07:20.343Z,29.38
2022-12-29T02:09:52.252Z,24.55
2022-12-29T02:12:21.640Z,26.92
2022-12-29T02:14:52.515Z,38.47
2022-12-29T02:17:29.617Z,48.35
2022-12-29T02:20:32.060Z,23.50
2022-12-29T02:23:42.772Z,42.00
2022-12-29T02:26:50.609Z,44.78
2022-12-29T02:29:52.054Z,19.33
2022-12-29T02:32:38.492Z,37.67
2022-12-29T02:35:10.843Z,25.10
2022-12-29T02:37:57.700Z,34.10
2022-12-29T02:40:42.598Z,32.17
2022-12-29T02:43:27.643Z,33.58
2022-12-29T02:46:34.587Z,46.97
2022-12-29T02:49:25.566Z,22.33
2022-12-29T02:52:07.742Z,45.88
2022-12-29T02:54:43.793Z,29.35
2022-12-29T02:57:23.059Z,35.00
2022-12-29T03:00:01.967Z,33.22
2022-12-29T03:02:53.424Z,35.28
2022-12-29T03:05:27.036Z,35.10
2022-12-29T03:08:24.379Z,34.47
2022-12-29T03:11:06.528Z,40.95
2022-12-29T03:14:09.413Z,32.83
2022-12-29T03:16:48.864Z,27.95
2022-12-29T03:19:23.016Z,36.03
2022-12-29T03:22:13.542Z,32.22
2022-12-29T03:24:48.029Z,45.45
2022-12-29T03:27:20.460Z,31.08
2022-12-29T03:29:55.210Z,30.00
2022-12-29T03:32:27.268Z,61.85
2022-12-29T03:34:56.329Z,36.05
2022-12-29T03:37:29.367Z,58.08
2022-12-29T03:39:57.806Z,34.10
2022-12-29T03:42:28.648Z,44.97
2022-12-29T03:44:57.924Z,31.67
2022-12-29T03:47:25.843Z,59.08
2022-12-29T03:49:53.742Z,49.53
2022-12-29T03:52:20.926Z,46.28
2022-12-29T03:54:48.405Z,25.75
2022-12-29T03:57:15.534Z,34.05
2022-12-29T03:59:42.666Z,30.17
2022-12-29T04:02:10.080Z,57.55
2022-12-29T04:04:37.456Z,33.05
2022-12-29T04:07:04.722Z,41.90
2022-12-29T04:09:32.518Z,43.08
2022-12-29T04:11:59.703Z,34.38
2022-12-29T04:14:27.011Z,46.05
2022-12-29T04:16:54.132Z,22.02
2022-12-29T04:19:21.245Z,36.70
2022-12-29T04:21:48.492Z,46.00
2022-12-29T04:24:15.656Z,47.22
2022-12-29T04:26:43.030Z,31.27
2022-12-29T04:29:10.339Z,24.00
2022-12-29T04:31:37.535Z,30.80
2022-12-29T04:34:04.827Z,32.55
2022-12-29T04:36:32.138Z,39.03
2022-12-29T04:38:59.394Z,42.55
2022-12-29T04:41:26.694Z,33.83
2022-12-29T04:43:54.023Z,33.50
2022-12-29T04:46:21.278Z,33.40
2022-12-29T04:48:48.675Z,39.00
2022-12-29T04:51:16.176Z,23.65
2022-12-29T04:53:43.422Z,32.08
2022-12-29T04:56:10.727Z,21.10
2022-12-29T04:58:38.569Z,26.23
2022-12-29T05:01:05.703Z,30.13
2022-12-29T05:03:32.932Z,24.92
2022-12-29T05:06:00.277Z,24.05
2022-12-29T05:08:28.628Z,33.65
2022-12-29T05:10:56.011Z,41.10
2022-12-29T05:13:23.721Z,28.40
2022-12-29T05:15:54.691Z,46.45
2022-12-29T05:18:22.061Z,44.05
2022-12-29T05:20:49.490Z,32.03
2022-12-29T05:23:17.154Z,27.30
2022-12-29T05:25:46.956Z,47.75
2022-12-29T05:28:14.613Z,44.63
2022-12-29T05:30:41.790Z,52.33
2022-12-29T05:33:08.980Z,34.63
2022-12-29T05:35:36.181Z,51.88
2022-12-29T05:38:03.400Z,35.50
2022-12-29T05:40:30.562Z,25.65
2022-12-29T05:42:57.827Z,28.17
2022-12-29T05:45:25.044Z,40.33
2022-12-29T05:47:52.236Z,38.42
2022-12-29T05:50:19.412Z,28.25
2022-12-29T05:52:46.824Z,43.35
2022-12-29T05:55:13.977Z,34.78
2022-12-29T05:57:41.718Z,28.05
2022-12-29T06:00:09.636Z,27.73
2022-12-29T06:02:37.167Z,22.42
2022-12-29T06:05:04.714Z,21.58
2022-12-29T06:07:31.867Z,25.20
2022-12-29T06:09:58.980Z,32.55
2022-12-29T06:12:26.143Z,29.48
2022-12-29T06:14:53.331Z,35.30
2022-12-29T06:17:20.491Z,23.08
2022-12-29T06:19:47.736Z,27.05
2022-12-29T06:22:14.923Z,32.22
2022-12-29T06:24:42.165Z,30.42
2022-12-29T06:27:09.556Z,30.35
2022-12-29T06:29:38.254Z,31.40
2022-12-29T06:32:05.506Z,34.30
2022-12-29T06:34:32.814Z,36.22
2022-12-29T06:37:00.078Z,28.02
2022-12-29T06:39:27.380Z,20.13
2022-12-29T06:41:55.200Z,49.63
2022-12-29T06:44:23.120Z,23.92
2022-12-29T06:46:51.294Z,47.13
2022-12-29T06:49:18.897Z,24.65
2022-12-29T06:51:46.660Z,30.23
2022-12-29T06:54:14.150Z,44.53
2022-12-29T06:56:41.583Z,34.33
2022-12-29T06:59:08.781Z,57.88
2022-12-29T07:01:37.183Z,31.48
2022-12-29T07:04:05.029Z,25.27
2022-12-29T07:06:32.258Z,30.05
2022-12-29T07:08:59.532Z,44.80
2022-12-29T07:11:26.958Z,33.08
2022-12-29T07:13:54.089Z,38.10
2022-12-29T07:16:21.468Z,37.53
2022-12-29T07:18:48.705Z,58.47
2022-12-29T07:21:15.953Z,26.88
2022-12-29T07:23:43.355Z,57.55
2022-12-29T07:26:13.577Z,57.65
2022-12-29T07:28:40.789Z,41.63
2022-12-29T07:31:14.052Z,57.25
2022-12-29T07:33:41.183Z,57.65
2022-12-29T07:36:08.701Z,55.38
2022-12-29T07:38:36.099Z,43.28
2022-12-29T07:41:03.337Z,29.52
2022-12-29T07:43:30.624Z,55.30
2022-12-29T07:45:57.936Z,33.03
2022-12-29T07:48:25.171Z,42.03
2022-12-29T07:50:53.182Z,19.98
2022-12-29T07:53:20.739Z,30.42
2022-12-29T07:55:48.050Z,27.52
2022-12-29T07:58:15.172Z,22.88
2022-12-29T08:00:42.459Z,35.17
2022-12-29T08:03:09.544Z,38.58
2022-12-29T08:05:36.835Z,21.42
2022-12-29T08:08:04.141Z,23.55
2022-12-29T08:10:31.336Z,43.50
2022-12-29T08:12:59.266Z,27.45
2022-12-29T08:15:32.186Z,52.22
2022-12-29T08:17:59.851Z,46.97
2022-12-29T08:20:27.143Z,25.20
2022-12-29T08:22:54.329Z,29.45
2022-12-29T08:25:21.513Z,36.88
2022-12-29T08:27:48.762Z,34.80
2022-12-29T08:30:16.211Z,28.48
2022-12-29T08:32:43.687Z,42.80
2022-12-29T08:35:10.911Z,36.63
2022-12-29T08:37:38.472Z,35.25
2022-12-29T08:40:06.998Z,31.48
2022-12-29T08:42:34.904Z,28.13
2022-12-29T08:45:02.664Z,40.75
2022-12-29T08:47:29.835Z,29.13
2022-12-29T08:49:57.063Z,36.08
2022-12-29T08:52:24.206Z,28.10
2022-12-29T08:54:51.356Z,29.50
2022-12-29T08:57:18.606Z,44.90
2022-12-29T08:59:45.808Z,39.33
2022-12-29T09:02:17.514Z,31.23
2022-12-29T09:04:47.664Z,27.92
2022-12-29T09:07:14.926Z,57.47
2022-12-29T09:09:42.019Z,41.90
2022-12-29T09:12:09.268Z,33.70
2022-12-29T09:14:36.451Z,38.70
2022-12-29T09:17:22.191Z,23.77
2022-12-29T09:19:49.562Z,59.40
2022-12-29T09:22:16.775Z,36.72
2022-12-29T09:24:44.011Z,30.60
2022-12-29T09:27:11.198Z,37.95
2022-12-29T09:29:38.391Z,42.42
2022-12-29T09:32:07.774Z,48.88
2022-12-29T09:34:35.648Z,40.28
2022-12-29T09:37:02.827Z,33.90
2022-12-29T09:39:30.051Z,36.33
2022-12-29T09:42:14.366Z,40.47
2022-12-29T09:45:05.820Z,39.47
2022-12-29T09:47:33.126Z,33.78
2022-12-29T09:50:15.137Z,33.17
2022-12-29T09:52:51.857Z,35.85
2022-12-29T09:55:23.728Z,41.67
2022-12-29T09:57:55.466Z,29.50
2022-12-29T10:00:25.780Z,30.58
2022-12-29T10:03:16.095Z,29.67
2022-12-29T10:05:49.874Z,26.40
2022-12-29T10:10:53.290Z,23.23
2022-12-29T10:13:41.957Z,25.35
2022-12-29T10:16:45.548Z,22.25
2022-12-29T10:19:21.629Z,22.03
2022-12-29T10:22:05.251Z,22.83
2022-12-29T10:24:34.646Z,20.40
2022-12-29T10:27:02.273Z,20.77
2022-12-29T10:29:38.369Z,17.63
2022-12-29T10:32:27.422Z,17.48
2022-12-29T10:34:59.972Z,19.48
2022-12-29T10:38:03.772Z,21.10
2022-12-29T10:41:05.292Z,15.45
2022-12-29T10:43:37.664Z,15.85
2022-12-29T10:46:12.535Z,18.48
2022-12-29T10:48:39.975Z,13.93
2022-12-29T10:51:12.434Z,18.52
2022-12-29T10:54:12.353Z,16.15
2022-12-29T10:56:55.305Z,15.38
2022-12-29T10:59:25.144Z,17.88
2022-12-29T11:02:10.569Z,14.05
2022-12-29T11:04:52.627Z,20.05
2022-12-29T11:07:27.061Z,20.92
2022-12-29T11:09:55.671Z,16.17
2022-12-29T11:12:32.160Z,17.42
2022-12-29T11:15:10.733Z,14.32
2022-12-29T11:17:48.994Z,12.55
2022-12-29T11:20:30.004Z,12.40
2022-12-29T11:22:57.776Z,12.32
2022-12-29T11:25:24.951Z,14.90
2022-12-29T11:28:01.665Z,14.10
2022-12-29T11:30:32.024Z,10.82
2022-12-29T11:33:03.983Z,10.07
2022-12-29T11:35:35.538Z,11.07
2022-12-29T11:38:04.270Z,11.82
2022-12-29T11:40:31.825Z,10.52
2022-12-29T11:43:03.942Z,10.98
2022-12-29T11:45:38.291Z,11.02
2022-12-29T11:48:14.103Z,11.15
2022-12-29T11:50:43.782Z,11.02
2022-12-29T11:53:44.200Z,14.43
2022-12-29T11:56:17.434Z,14.40
2022-12-29T11:58:45.346Z,12.57
2022-12-29T12:01:42.519Z,13.50
2022-12-29T12:04:22.753Z,11.30
2022-12-29T12:06:55.645Z,13.73
2022-12-29T12:09:38.160Z,15.13
2022-12-29T12:12:07.238Z,13.02
2022-12-29T12:14:47.961Z,13.48
2022-12-29T12:17:25.134Z,11.85
2022-12-29T12:20:19.188Z,14.48
2022-12-29T12:23:03.863Z,11.35
2022-12-29T12:25:39.586Z,16.33
2022-12-29T12:28:44.390Z,17.40
2022-12-29T12:31:24.983Z,15.40
2022-12-29T12:33:59.107Z,17.73
2022-12-29T12:36:50.244Z,15.82
2022-12-29T12:39:45.359Z,15.63
2022-12-29T12:42:39.593Z,14.48
2022-12-29T12:48:31.143Z,15.32
2022-12-29T12:51:16.783Z,13.82
2022-12-29T12:54:01.499Z,14.05
2022-12-29T12:56:46.906Z,14.13
2022-12-29T12:59:14.031Z,17.25
2022-12-29T13:02:00.155Z,19.55
2022-12-29T13:04:38.719Z,16.05
2022-12-29T13:07:26.991Z,17.50
2022-12-29T13:10:18.787Z,16.33
2022-12-29T13:13:01.172Z,17.65
2022-12-29T13:15:31.111Z,20.38
2022-12-29T13:18:16.359Z,19.30
2022-12-29T13:20:56.116Z,14.82
2022-12-29T13:23:38.711Z,16.35
2022-12-29T13:26:33.557Z,20.83
2022-12-29T13:29:31.315Z,20.70
2022-12-29T13:32:12.311Z,15.65
2022-12-29T13:35:05.790Z,18.80
2022-12-29T13:37:37.392Z,15.43
2022-12-29T13:40:14.337Z,18.70
2022-12-29T13:42:43.393Z,22.30
2022-12-29T13:45:19.502Z,23.05
2022-12-29T13:47:56.509Z,19.85
2022-12-29T13:50:27.408Z,15.27
2022-12-29T13:53:00.244Z,19.45
2022-12-29T13:55:36.374Z,18.63
2022-12-29T13:58:18.459Z,16.80
2022-12-29T14:01:10.656Z,18.13
2022-12-29T14:03:45.221Z,18.20
2022-12-29T14:06:26.684Z,21.70
2022-12-29T14:09:06.033Z,18.45
2022-12-29T14:11:42.419Z,18.55
2022-12-29T14:14:25.926Z,21.05
2022-12-29T14:16:54.296Z,22.42
2022-12-29T14:19:28.143Z,17.23
2022-12-29T14:22:04.639Z,20.58
2022-12-29T14:24:37.851Z,24.65
2022-12-29T14:27:11.163Z,22.67
2022-12-29T14:29:41.056Z,21.83
2022-12-29T14:32:26.395Z,23.67
2022-12-29T14:34:57.814Z,18.33
2022-12-29T14:37:32.355Z,20.27
2022-12-29T14:40:21.159Z,26.92
2022-12-29T14:42:49.804Z,26.40
2022-12-29T14:45:17.818Z,23.80
2022-12-29T14:47:46.139Z,25.98
2022-12-29T14:50:17.689Z,21.90
2022-12-29T14:53:03.025Z,25.85
2022-12-29T14:55:43.047Z,30.55
2022-12-29T14:58:21.613Z,29.13
2022-12-29T15:00:50.059Z,18.70
2022-12-29T15:03:51.165Z,20.02
2022-12-29T15:06:23.385Z,22.98
2022-12-29T15:09:16.427Z,24.20
2022-12-29T15:11:50.035Z,17.83
2022-12-29T15:14:32.717Z,25.42
2022-12-29T15:17:00.032Z,18.63
2022-12-29T15:19:28.522Z,17.27
2022-12-29T15:21:57.090Z,25.60
2022-12-29T15:24:25.848Z,29.60
2022-12-29T15:26:55.903Z,23.83
2022-12-29T15:29:34.286Z,23.63
2022-12-29T15:32:11.986Z,22.50
2022-12-29T15:34:40.036Z,20.23
2022-12-29T15:37:09.022Z,20.02
2022-12-29T15:39:37.032Z,25.60
2022-12-29T15:42:41.185Z,19.92
2022-12-29T15:45:13.803Z,23.60
2022-12-29T15:47:43.953Z,24.15
2022-12-29T15:50:19.582Z,22.05
2022-12-29T15:52:47.221Z,25.30
2022-12-29T15:55:31.255Z,21.70
2022-12-29T15:58:01.643Z,25.48
2022-12-29T16:00:31.877Z,27.95
2022-12-29T16:03:02.820Z,19.48
2022-12-29T16:05:35.557Z,32.30
2022-12-29T16:08:04.349Z,19.87
2022-12-29T16:10:41.396Z,20.70
2022-12-29T16:13:39.613Z,19.70
2022-12-29T16:16:24.222Z,22.92
2022-12-29T16:18:57.431Z,21.60
2022-12-29T16:21:32.692Z,24.95
2022-12-29T16:24:13.374Z,20.17
2022-12-29T16:26:46.383Z,19.48
2022-12-29T16:29:14.862Z,19.55
2022-12-29T16:31:50.780Z,26.05
2022-12-29T16:34:31.307Z,17.98
2022-12-29T16:37:04.035Z,21.17
2022-12-29T16:39:41.109Z,17.70
2022-12-29T16:42:45.796Z,15.57
2022-12-29T16:45:21.312Z,19.92
2022-12-29T16:48:06.717Z,24.38
2022-12-29T16:50:36.906Z,16.65
2022-12-29T16:53:05.530Z,21.55
2022-12-29T16:55:33.700Z,20.80
2022-12-29T16:58:01.726Z,15.25
2022-12-29T17:00:38.075Z,17.85
2022-12-29T17:03:05.512Z,18.23
2022-12-29T17:05:32.738Z,20.55
2022-12-29T17:08:02.183Z,17.25
2022-12-29T17:10:50.401Z,19.92
2022-12-29T17:13:17.529Z,19.73
2022-12-29T17:15:44.758Z,19.25
2022-12-29T17:18:14.075Z,21.67
2022-12-29T17:20:41.448Z,17.80
2022-12-29T17:23:19.954Z,17.27
2022-12-29T17:25:55.147Z,18.65
2022-12-29T17:28:26.727Z,19.55
2022-12-29T17:30:55.943Z,17.92
2022-12-29T17:33:23.323Z,22.20
2022-12-29T17:35:55.221Z,14.90
2022-12-29T17:38:31.006Z,18.02
2022-12-29T17:40:59.427Z,20.58
2022-12-29T17:43:34.611Z,16.45
2022-12-29T17:46:05.896Z,18.90
2022-12-29T17:48:32.956Z,20.55
2022-12-29T17:51:00.185Z,22.98
2022-12-29T17:53:30.075Z,22.73
2022-12-29T17:55:57.394Z,22.38
2022-12-29T17:58:29.628Z,25.40
2022-12-29T18:00:59.856Z,19.52
2022-12-29T18:03:33.873Z,18.88
2022-12-29T18:06:01.812Z,21.17
2022-12-29T18:08:29.692Z,17.00
2022-12-29T18:10:57.591Z,25.80
2022-12-29T18:13:45.545Z,20.25
2022-12-29T18:16:14.767Z,19.25
2022-12-29T18:18:42.048Z,19.83
2022-12-29T18:21:18.230Z,20.30
2022-12-29T18:23:46.108Z,16.75
2022-12-29T18:26:22.292Z,16.60
2022-12-29T18:28:54.346Z,19.65
2022-12-29T18:31:24.554Z,16.98
2022-12-29T18:33:53.497Z,21.02
2022-12-29T18:36:21.612Z,18.17
2022-12-29T18:38:51.142Z,25.60
2022-12-29T18:41:23.861Z,23.25
2022-12-29T18:43:53.249Z,23.37
2022-12-29T18:46:23.420Z,22.17
2022-12-29T18:48:51.553Z,29.83
2022-12-29T18:51:25.171Z,20.95
2022-12-29T18:53:54.526Z,23.45
2022-12-29T18:56:22.954Z,27.30
2022-12-29T18:58:50.837Z,22.08
2022-12-29T19:01:21.689Z,21.98
2022-12-29T19:03:49.521Z,21.75
2022-12-29T19:06:16.918Z,24.88
2022-12-29T19:08:44.043Z,26.25
2022-12-29T19:11:11.202Z,23.30
2022-12-29T19:13:38.686Z,26.33
2022-12-29T19:16:08.951Z,22.95
2022-12-29T19:18:45.414Z,27.05
2022-12-29T19:21:14.046Z,20.48
2022-12-29T19:23:41.248Z,22.50
2022-12-29T19:26:17.315Z,21.48
2022-12-29T19:28:44.495Z,19.60
2022-12-29T19:31:11.724Z,22.40
2022-12-29T19:33:38.978Z,21.40
2022-12-29T19:36:06.432Z,21.25
2022-12-29T19:38:33.527Z,30.27
2022-12-29T19:41:00.745Z,19.42
2022-12-29T19:43:27.943Z,18.52
2022-12-29T19:45:55.159Z,24.20
2022-12-29T19:48:22.494Z,22.90
2022-12-29T19:50:49.839Z,20.45
2022-12-29T19:53:17.020Z,25.23
2022-12-29T19:55:47.982Z,20.92
2022-12-29T19:58:15.765Z,26.90
2022-12-29T20:00:43.870Z,22.17
2022-12-29T20:03:11.828Z,18.15
2022-12-29T20:05:40.131Z,28.02
2022-12-29T20:08:07.722Z,35.80
2022-12-29T20:10:34.932Z,30.50
2022-12-29T20:13:02.916Z,24.60
2022-12-29T20:15:30.123Z,21.17
2022-12-29T20:18:14.509Z,21.60
2022-12-29T20:20:42.777Z,26.58
2022-12-29T20:23:10.164Z,20.17
2022-12-29T20:25:46.124Z,20.35
2022-12-29T20:28:15.200Z,19.50
2022-12-29T20:30:44.489Z,26.15
2022-12-29T20:33:11.669Z,22.45
2022-12-29T20:35:39.251Z,21.50
2022-12-29T20:38:06.511Z,23.63
2022-12-29T20:40:33.674Z,19.55
2022-12-29T20:43:00.854Z,22.63
2022-12-29T20:45:28.044Z,21.88
2022-12-29T20:47:55.214Z,21.92
2022-12-29T20:50:22.583Z,27.52
2022-12-29T20:52:49.812Z,23.13
2022-12-29T20:55:17.044Z,23.15
2022-12-29T20:58:21.975Z,34.90
2022-12-29T21:00:32.974Z,25.02
2022-12-29T21:03:01.241Z,24.90
2022-12-29T21:05:29.821Z,25.85
2022-12-29T21:07:59.905Z,21.15
2022-12-29T21:10:27.148Z,26.35
2022-12-29T21:12:54.260Z,25.73
2022-12-29T21:15:21.475Z,25.00
2022-12-29T21:17:48.943Z,32.47
2022-12-29T21:20:30.308Z,30.17
2022-12-29T21:23:01.946Z,25.17
2022-12-29T21:25:39.531Z,24.85
2022-12-29T21:28:08.963Z,32.58
2022-12-29T21:30:36.196Z,30.75
2022-12-29T21:33:03.546Z,42.03
2022-12-29T21:35:31.369Z,25.05
2022-12-29T21:37:58.483Z,30.92
2022-12-29T21:40:25.733Z,30.50
2022-12-29T21:42:53.209Z,26.60
2022-12-29T21:45:26.221Z,24.00
2022-12-29T21:48:24.385Z,31.90
2022-12-29T21:51:13.902Z,41.40
2022-12-29T21:53:43.595Z,26.83
2022-12-29T21:56:19.039Z,24.90
2022-12-29T21:59:08.853Z,30.50
2022-12-29T22:01:56.671Z,24.23
2022-12-29T22:04:44.301Z,23.90
2022-12-29T22:07:31.738Z,30.70
2022-12-29T22:10:17.457Z,26.58
2022-12-29T22:13:03.279Z,23.98
2022-12-29T22:15:36.285Z,24.77
2022-12-29T22:18:04.916Z,23.70
2022-12-29T22:20:35.793Z,26.45
2022-12-29T22:23:03.447Z,25.63
2022-12-29T22:25:30.754Z,27.50
2022-12-29T22:27:59.871Z,24.67
2022-12-29T22:30:28.834Z,31.27
2022-12-29T22:32:58.586Z,28.25
2022-12-29T22:35:25.861Z,23.27
2022-12-29T22:37:53.247Z,23.05
2022-12-29T22:40:20.440Z,24.63
2022-12-29T22:42:47.622Z,36.30
2022-12-29T22:45:15.028Z,30.55
2022-12-29T22:47:42.160Z,27.75
2022-12-29T22:50:09.816Z,28.73
2022-12-29T22:52:37.324Z,36.38
2022-12-29T22:55:07.179Z,28.92
2022-12-29T22:57:35.302Z,30.23
2022-12-29T23:00:03.510Z,28.80
2022-12-29T23:02:30.826Z,34.05
2022-12-29T23:05:03.498Z,32.20
2022-12-29T23:07:31.859Z,33.10
2022-12-29T23:09:59.147Z,35.33
2022-12-29T23:12:28.887Z,34.53
2022-12-29T23:14:56.065Z,38.72
2022-12-29T23:17:23.331Z,35.95
2022-12-29T23:19:50.580Z,40.33
2022-12-29T23:22:17.844Z,37.80
2022-12-29T23:24:45.166Z,38.15
2022-12-29T23:27:12.376Z,40.35
2022-12-29T23:29:39.666Z,39.60
2022-12-29T23:32:07.107Z,38.00
2022-12-29T23:34:34.308Z,42.88
2022-12-29T23:37:01.497Z,52.70
2022-12-29T23:39:29.300Z,52.10
2022-12-29T23:41:56.747Z,42.72
2022-12-29T23:44:24.066Z,44.00
2022-12-29T23:46:51.303Z,42.25
2022-12-29T23:49:18.565Z,42.63
2022-12-29T23:51:45.750Z,40.70
2022-12-29T23:54:12.945Z,46.30
2022-12-29T23:56:40.143Z,40.50
2022-12-29T23:59:07.778Z,42.78
